Time;durP1;ratioP1;P1;durP2;ratioP2;P2;SDS_P1;SDS_P2;PMS_P1;PMS_P2;Temp;Humidity;BMP_temperature;BMP_pressure;BME280_temperature;BME280_humidity;BME280_pressure;Samples;Min_cycle;Max_cycle;Signal;HPM_P1;HPM_P2
2022/05/19 04:03:13;;;;;;;6.17;2.10;;;10.50;99.90;;;;;;5622154;23;20249;-78
2022/05/19 04:05:42;;;;;;;12.83;2.57;;;10.50;99.90;;;;;;4856068;29;20222;-78
2022/05/19 04:08:10;;;;;;;7.70;2.27;;;10.50;99.90;;;;;;4859716;29;20294;-78
2022/05/19 04:10:42;;;;;;;5.60;2.27;;;10.50;99.90;;;;;;4872289;29;20557;-78
2022/05/19 04:13:10;;;;;;;4.63;1.90;;;10.50;99.90;;;;;;4869569;29;20265;-79
2022/05/19 04:15:38;;;;;;;5.50;1.97;;;10.50;99.90;;;;;;4859483;29;20243;-78
2022/05/19 04:18:07;;;;;;;11.20;2.20;;;10.50;99.90;;;;;;4859409;29;20258;-78
2022/05/19 04:20:36;;;;;;;9.37;2.17;;;10.60;99.90;;;;;;4847010;29;20261;-79
2022/05/19 04:23:04;;;;;;;10.93;2.03;;;10.60;99.90;;;;;;4859875;29;20662;-79
2022/05/19 04:25:33;;;;;;;4.20;2.70;;;10.70;99.90;;;;;;4858444;29;20267;-75
2022/05/19 04:28:01;;;;;;;8.30;2.50;;;10.80;99.90;;;;;;4871360;29;20238;-78
2022/05/19 04:30:31;;;;;;;8.77;2.10;;;10.80;99.90;;;;;;4880900;29;20304;-77
2022/05/19 04:32:59;;;;;;;9.20;2.20;;;10.90;99.90;;;;;;4866582;29;20681;-77
2022/05/19 04:35:27;;;;;;;7.90;2.00;;;10.90;99.90;;;;;;4863640;29;20214;-77
2022/05/19 04:38:06;;;;;;;7.67;2.30;;;11.00;99.90;;;;;;4863702;29;20209;-77
2022/05/19 04:40:38;;;;;;;4.23;2.10;;;11.10;99.90;;;;;;4863011;29;20214;-76
2022/05/19 04:43:12;;;;;;;6.63;1.90;;;11.10;99.90;;;;;;4862929;29;20668;-77
2022/05/19 04:45:40;;;;;;;4.07;1.93;;;11.30;99.90;;;;;;4861911;29;20636;-77
2022/05/19 04:48:08;;;;;;;7.03;2.13;;;11.30;99.90;;;;;;4862272;29;20241;-78
2022/05/19 04:50:37;;;;;;;8.47;2.20;;;11.40;99.90;;;;;;4875713;29;20224;-76
2022/05/19 04:53:06;;;;;;;5.83;2.10;;;11.40;99.90;;;;;;4857973;29;20242;-79
2022/05/19 04:55:35;;;;;;;2.47;1.83;;;11.50;99.90;;;;;;4843716;29;20599;-76
2022/05/19 04:58:03;;;;;;;5.67;1.87;;;11.50;99.90;;;;;;4855568;29;20301;-77
2022/05/19 05:00:31;;;;;;;6.73;2.23;;;11.60;99.90;;;;;;4870183;29;20292;-79
2022/05/19 05:03:04;;;;;;;6.77;1.97;;;11.60;99.90;;;;;;4865985;29;20646;-77
2022/05/19 05:05:32;;;;;;;3.63;1.80;;;11.60;99.90;;;;;;4861480;29;20254;-79
2022/05/19 05:08:00;;;;;;;5.93;1.67;;;11.70;99.90;;;;;;4869770;29;20314;-77
2022/05/19 05:10:30;;;;;;;3.97;1.97;;;11.70;99.90;;;;;;4862296;29;20235;-78
2022/05/19 05:12:58;;;;;;;4.50;2.10;;;11.70;99.90;;;;;;4859737;29;20306;-76
2022/05/19 05:15:26;;;;;;;4.57;1.97;;;11.80;99.90;;;;;;4861960;29;20248;-78
2022/05/19 05:17:54;;;;;;;5.07;2.00;;;11.80;99.90;;;;;;4861845;29;20223;-79
2022/05/19 05:20:22;;;;;;;4.57;1.77;;;11.90;99.90;;;;;;4861468;29;20207;-77
2022/05/19 05:22:50;;;;;;;4.87;2.00;;;12.00;99.90;;;;;;4861630;29;20250;-78
2022/05/19 05:25:18;;;;;;;4.43;2.23;;;12.00;99.90;;;;;;4861595;29;20800;-76
2022/05/19 05:27:49;;;;;;;2.87;2.00;;;12.10;99.90;;;;;;4861711;29;20254;-78
2022/05/19 05:30:17;;;;;;;6.63;2.03;;;12.20;99.90;;;;;;4872187;29;20633;-77
2022/05/19 05:32:45;;;;;;;5.73;1.70;;;12.20;99.90;;;;;;4865440;29;20642;-78
2022/05/19 05:35:14;;;;;;;5.37;1.93;;;12.30;99.90;;;;;;4861560;29;20310;-78
2022/05/19 05:37:42;;;;;;;5.23;2.03;;;12.40;99.90;;;;;;4860088;29;20214;-77
2022/05/19 05:40:14;;;;;;;4.97;1.87;;;12.60;99.90;;;;;;4862410;29;20242;-77
2022/05/19 05:42:41;;;;;;;3.63;2.20;;;12.70;99.90;;;;;;4862391;29;20686;-76
2022/05/19 05:45:12;;;;;;;4.90;2.30;;;13.00;99.90;;;;;;4861365;29;20235;-77
2022/05/19 05:47:40;;;;;;;4.77;2.07;;;13.40;99.90;;;;;;4879359;29;20287;-77
2022/05/19 05:50:12;;;;;;;4.67;2.00;;;13.90;99.90;;;;;;4877689;29;20263;-77
2022/05/19 05:52:41;;;;;;;2.97;1.97;;;14.70;99.90;;;;;;4879220;29;20669;-76
2022/05/19 05:55:10;;;;;;;6.10;2.00;;;15.30;99.20;;;;;;4878442;29;20199;-77
2022/05/19 05:57:37;;;;;;;6.20;2.20;;;16.40;98.50;;;;;;4879050;29;20232;-76
2022/05/19 06:00:09;;;;;;;7.20;1.97;;;17.30;96.80;;;;;;4874536;29;20223;-76
2022/05/19 06:02:38;;;;;;;4.30;2.00;;;18.70;94.00;;;;;;4861710;29;20195;-75
2022/05/19 06:05:10;;;;;;;4.20;1.90;;;19.70;91.40;;;;;;4863615;29;20321;-77
2022/05/19 06:07:38;;;;;;;5.17;2.10;;;19.40;90.40;;;;;;4867369;29;20290;-76
2022/05/19 06:10:07;;;;;;;4.13;2.23;;;20.40;90.00;;;;;;4860963;29;20238;-77
2022/05/19 06:12:35;;;;;;;5.97;1.90;;;20.80;86.50;;;;;;4861271;29;20644;-76
2022/05/19 06:15:08;;;;;;;4.53;2.00;;;21.40;85.30;;;;;;4872814;29;20263;-77
2022/05/19 06:17:40;;;;;;;6.70;2.30;;;22.10;82.20;;;;;;4873185;29;20258;-77
2022/05/19 06:20:10;;;;;;;6.87;1.93;;;22.40;82.50;;;;;;4879187;29;20227;-77
2022/05/19 06:22:38;;;;;;;5.47;2.10;;;23.00;80.20;;;;;;4869781;29;20242;-77
2022/05/19 06:25:08;;;;;;;4.23;2.10;;;23.40;78.00;;;;;;4861014;29;20238;-76
2022/05/19 06:27:36;;;;;;;3.57;2.10;;;24.00;77.80;;;;;;4860680;29;20226;-77
2022/05/19 06:30:07;;;;;;;3.40;1.93;;;24.60;75.90;;;;;;4876430;29;20246;-77
2022/05/19 06:32:35;;;;;;;4.13;1.90;;;25.60;72.10;;;;;;4879230;29;20729;-77
2022/05/19 06:35:07;;;;;;;5.00;2.10;;;26.00;71.90;;;;;;4869634;29;20670;-77
2022/05/19 06:37:35;;;;;;;4.57;2.10;;;26.90;70.70;;;;;;4860027;29;20314;-75
2022/05/19 06:40:05;;;;;;;4.88;2.17;;;27.00;67.80;;;;;;4869977;29;20206;-77
2022/05/19 06:42:33;;;;;;;4.07;1.70;;;25.60;68.10;;;;;;4869557;29;20215;-76
2022/05/19 06:45:02;;;;;;;4.13;2.08;;;26.50;69.60;;;;;;4860526;29;20215;-75
2022/05/19 06:47:33;;;;;;;4.80;1.90;;;26.20;69.30;;;;;;4860781;29;20306;-77
2022/05/19 06:50:01;;;;;;;3.72;2.10;;;26.40;67.50;;;;;;4858823;29;20213;-77
2022/05/19 06:52:33;;;;;;;3.45;2.08;;;26.70;66.70;;;;;;4860367;29;20222;-75
2022/05/19 06:55:03;;;;;;;6.13;2.50;;;25.90;69.30;;;;;;4860478;29;20222;-75
2022/05/19 06:57:31;;;;;;;4.15;1.92;;;26.10;67.60;;;;;;4860716;29;20256;-78
2022/05/19 07:00:00;;;;;;;3.40;2.25;;;25.90;69.00;;;;;;4860412;29;20279;-77
2022/05/19 07:02:28;;;;;;;6.70;2.25;;;26.50;67.70;;;;;;4860431;29;20207;-77
2022/05/19 07:04:56;;;;;;;4.28;2.13;;;27.70;64.70;;;;;;4873554;29;20226;-77
2022/05/19 07:07:25;;;;;;;4.22;2.10;;;27.50;66.10;;;;;;4859786;29;20257;-77
2022/05/19 07:09:54;;;;;;;4.32;2.28;;;27.80;64.50;;;;;;4859746;29;20298;-76
2022/05/19 07:12:24;;;;;;;8.10;2.50;;;27.20;64.80;;;;;;4860044;29;20237;-77
2022/05/19 07:14:52;;;;;;;2.63;2.13;;;27.00;65.20;;;;;;4860367;29;20253;-76
2022/05/19 07:17:21;;;;;;;4.13;2.50;;;27.30;65.70;;;;;;4859895;29;20592;-77
2022/05/19 07:22:35;;;;;;;3.70;2.22;;;28.10;64.90;;;;;;4859396;29;20246;-77
2022/05/19 07:25:08;;;;;;;5.13;2.33;;;27.50;66.00;;;;;;4866419;29;20266;-77
2022/05/19 07:27:36;;;;;;;4.07;2.72;;;28.70;66.30;;;;;;4873235;29;20207;-76
2022/05/19 07:30:06;;;;;;;4.13;2.33;;;28.80;63.70;;;;;;4878231;29;20669;-76
2022/05/19 07:32:35;;;;;;;7.05;2.45;;;28.30;63.10;;;;;;4865677;29;20215;-77
2022/05/19 07:35:04;;;;;;;3.80;2.25;;;28.50;65.60;;;;;;4859621;29;20303;-78
2022/05/19 07:37:32;;;;;;;5.78;2.70;;;28.50;66.90;;;;;;4858823;29;20293;-76
2022/05/19 07:40:01;;;;;;;3.53;2.25;;;27.90;65.70;;;;;;4859389;29;20250;-77
2022/05/19 07:42:30;;;;;;;5.93;2.38;;;27.30;66.10;;;;;;4859482;29;20297;-77
2022/05/19 07:44:59;;;;;;;6.60;2.53;;;29.00;65.60;;;;;;4859308;29;20223;-76
2022/05/19 07:47:29;;;;;;;4.38;2.30;;;28.30;64.40;;;;;;4859956;29;20239;-76
2022/05/19 07:49:57;;;;;;;6.63;2.50;;;28.00;66.90;;;;;;4859352;29;20673;-76
2022/05/19 07:52:30;;;;;;;3.05;2.20;;;28.40;67.10;;;;;;4859359;29;20242;-77
2022/05/19 07:54:58;;;;;;;6.03;2.80;;;28.60;65.20;;;;;;4859569;29;20740;-75
2022/05/19 07:57:26;;;;;;;5.40;2.63;;;29.20;64.60;;;;;;4859594;29;20604;-75
2022/05/19 07:59:55;;;;;;;5.07;2.47;;;29.50;65.30;;;;;;4859455;29;20238;-77
2022/05/19 08:02:23;;;;;;;11.40;3.70;;;30.00;66.60;;;;;;4863057;29;20238;-77
2022/05/19 08:04:53;;;;;;;7.68;2.58;;;30.40;62.70;;;;;;4863334;29;20227;-76
2022/05/19 08:07:21;;;;;;;6.97;2.88;;;30.40;62.70;;;;;;4863563;29;20258;-76
2022/05/19 08:15:37;;;;;;;4.47;2.75;;;29.90;63.40;;;;;;4829503;29;20685;-78
2022/05/19 08:18:08;;;;;;;3.13;2.55;;;30.80;65.70;;;;;;4862889;29;20226;-76
2022/05/19 08:20:39;;;;;;;6.07;2.55;;;30.80;63.60;;;;;;4862720;29;20199;-76
2022/05/19 08:23:08;;;;;;;6.20;2.72;;;31.40;62.00;;;;;;4863005;29;20203;-77
2022/05/19 08:25:38;;;;;;;2.90;2.20;;;31.20;62.10;;;;;;4863897;29;20241;-75
2022/05/19 08:28:07;;;;;;;7.22;2.30;;;30.60;67.20;;;;;;4862794;29;20677;-76
2022/05/19 08:30:37;;;;;;;5.55;2.40;;;30.70;64.10;;;;;;4862764;29;20279;-76
2022/05/19 08:33:06;;;;;;;6.72;2.47;;;31.20;61.70;;;;;;4862843;29;20223;-76
2022/05/19 08:35:34;;;;;;;5.18;2.60;;;30.80;63.20;;;;;;4862882;29;20215;-80
2022/05/19 08:38:02;;;;;;;5.28;2.25;;;31.40;63.30;;;;;;4862953;29;20230;-78
2022/05/19 08:40:37;;;;;;;4.32;2.50;;;31.60;64.00;;;;;;4862748;29;20302;-78
2022/05/19 08:43:05;;;;;;;6.18;2.88;;;32.10;61.90;;;;;;4862732;29;20215;-77
2022/05/19 08:45:41;;;;;;;5.57;2.65;;;32.00;60.70;;;;;;4863035;29;20339;-77
2022/05/19 08:48:15;;;;;;;5.35;2.60;;;31.20;65.80;;;;;;4846767;29;20569;-77
2022/05/19 08:50:48;;;;;;;3.85;2.70;;;31.60;66.90;;;;;;4862383;29;20306;-76
2022/05/19 08:53:16;;;;;;;3.65;2.63;;;32.20;64.30;;;;;;4844651;29;20245;-77
2022/05/19 08:55:48;;;;;;;6.20;2.88;;;32.40;63.90;;;;;;4844063;29;20561;-76
2022/05/19 08:58:33;;;;;;;5.88;2.80;;;32.10;61.40;;;;;;4843732;29;20322;-77
2022/05/19 09:01:09;;;;;;;3.55;2.70;;;32.60;61.80;;;;;;4843973;29;20286;-76
2022/05/19 09:03:45;;;;;;;4.35;2.25;;;32.50;61.70;;;;;;4843644;29;20223;-78
2022/05/19 09:06:33;;;;;;;3.85;2.58;;;32.20;68.20;;;;;;4843888;29;20264;-78
2022/05/19 09:09:12;;;;;;;5.25;2.45;;;32.50;65.70;;;;;;4860384;29;20846;-75
2022/05/19 09:11:46;;;;;;;5.32;2.58;;;32.40;62.50;;;;;;4861965;29;20233;-77
2022/05/19 09:14:21;;;;;;;5.35;2.90;;;32.80;62.50;;;;;;4861577;29;20294;-77
2022/05/19 09:16:52;;;;;;;6.22;2.95;;;32.70;64.60;;;;;;4862123;29;20305;-78
2022/05/19 09:19:26;;;;;;;4.45;2.70;;;33.60;62.60;;;;;;4865864;29;20237;-77
2022/05/19 09:22:01;;;;;;;3.85;2.67;;;32.80;62.70;;;;;;4872681;29;20222;-77
2022/05/19 09:24:30;;;;;;;5.65;2.65;;;32.70;64.80;;;;;;4875273;29;20214;-78
2022/05/19 09:27:01;;;;;;;4.88;2.70;;;32.70;63.20;;;;;;4861884;29;20605;-76
2022/05/19 09:29:33;;;;;;;5.25;2.63;;;32.60;62.40;;;;;;4861572;29;20235;-76
2022/05/19 09:32:13;;;;;;;6.47;2.80;;;33.10;62.20;;;;;;4861875;29;20581;-77
2022/05/19 09:34:44;;;;;;;6.60;2.70;;;33.10;63.40;;;;;;4861475;29;20231;-77
2022/05/19 09:37:15;;;;;;;5.05;2.58;;;33.40;63.00;;;;;;4861835;29;20253;-78
2022/05/19 09:39:47;;;;;;;3.67;2.72;;;32.90;63.40;;;;;;4861397;29;20688;-78
2022/05/19 09:42:20;;;;;;;6.50;2.85;;;32.10;65.80;;;;;;4854846;29;20222;-77
2022/05/19 09:44:58;;;;;;;3.88;2.50;;;32.80;66.50;;;;;;4843848;29;20200;-76
2022/05/19 09:47:31;;;;;;;2.60;2.17;;;33.20;68.40;;;;;;4843922;29;20195;-78
2022/05/19 09:50:09;;;;;;;7.07;2.40;;;33.80;62.80;;;;;;4847869;29;20298;-79
2022/05/19 09:52:41;;;;;;;5.07;2.70;;;33.70;64.80;;;;;;4862328;29;20195;-77
2022/05/19 09:55:10;;;;;;;3.55;2.60;;;33.70;65.20;;;;;;4862315;29;20256;-78
2022/05/19 09:57:44;;;;;;;6.00;2.72;;;34.40;60.80;;;;;;4863033;29;20235;-77
2022/05/19 10:00:25;;;;;;;3.38;2.40;;;34.70;58.30;;;;;;4862236;29;20351;-77
2022/05/19 10:02:58;;;;;;;4.10;2.60;;;35.00;62.20;;;;;;4861698;29;20211;-77
2022/05/19 10:05:48;;;;;;;3.42;2.42;;;34.50;61.40;;;;;;4862089;29;20638;-77
2022/05/19 10:08:19;;;;;;;4.60;2.50;;;33.90;64.80;;;;;;4862118;29;20202;-78
2022/05/19 10:10:56;;;;;;;3.88;2.40;;;33.90;63.60;;;;;;4862431;29;20252;-78
2022/05/19 10:13:27;;;;;;;5.43;2.35;;;34.90;63.00;;;;;;4861264;29;20202;-78
2022/05/19 10:16:01;;;;;;;4.57;2.65;;;35.40;58.40;;;;;;4861063;29;20555;-76
2022/05/19 10:18:44;;;;;;;7.25;2.70;;;34.90;65.40;;;;;;4861659;29;20219;-75
2022/05/19 10:21:36;;;;;;;5.38;2.70;;;35.20;59.80;;;;;;4869035;29;20214;-75
2022/05/19 10:24:22;;;;;;;5.20;2.70;;;34.70;60.90;;;;;;4861161;29;20305;-80
2022/05/19 10:32:56;;;;;;;5.53;2.60;;;34.40;65.40;;;;;;4860429;29;20693;-78
2022/05/19 10:35:34;;;;;;;6.50;2.80;;;34.10;62.20;;;;;;4845892;29;20199;-77
2022/05/19 10:38:16;;;;;;;5.15;2.67;;;34.50;63.40;;;;;;4861221;29;20219;-77
2022/05/19 10:41:02;;;;;;;8.80;2.92;;;34.40;65.90;;;;;;4861015;29;20298;-77
2022/05/19 10:43:45;;;;;;;4.68;2.60;;;34.40;63.30;;;;;;4861242;29;20222;-76
2022/05/19 10:46:29;;;;;;;6.28;2.65;;;34.40;61.20;;;;;;5172234;27;20638;-77
2022/05/19 10:49:26;;;;;;;6.07;3.00;;;34.20;65.60;;;;;;5141604;27;20203;-77
2022/05/19 10:52:04;;;;;;;6.88;2.88;;;34.80;59.60;;;;;;5114982;27;20213;-78
2022/05/19 10:54:48;;;;;;;5.78;2.65;;;34.20;66.00;;;;;;5131043;27;20236;-77
2022/05/19 10:57:32;;;;;;;6.95;3.05;;;34.20;63.80;;;;;;5131427;27;20197;-77
2022/05/19 11:00:08;;;;;;;6.13;2.90;;;34.40;65.10;;;;;;5130947;28;20653;-77
2022/05/19 11:02:59;;;;;;;5.78;2.97;;;34.30;63.30;;;;;;5132733;28;20209;-77
2022/05/19 11:05:42;;;;;;;4.70;2.80;;;33.90;65.70;;;;;;5132670;28;20229;-78
2022/05/19 11:08:23;;;;;;;8.45;3.35;;;33.90;64.10;;;;;;5130549;27;20620;-77
2022/05/19 11:10:56;;;;;;;4.63;3.22;;;34.30;64.90;;;;;;5129826;28;20563;-76
2022/05/19 11:13:44;;;;;;;6.07;3.08;;;34.30;63.00;;;;;;5130219;28;20213;-76
2022/05/19 11:16:21;;;;;;;8.23;3.53;;;35.00;62.00;;;;;;5130028;28;20743;-77
2022/05/19 11:19:00;;;;;;;9.27;3.28;;;34.40;62.40;;;;;;5146861;27;20205;-77
2022/05/19 11:21:36;;;;;;;5.15;3.03;;;34.20;64.90;;;;;;5151080;27;20597;-77
2022/05/19 11:24:08;;;;;;;5.13;2.80;;;32.70;67.30;;;;;;5151000;27;20189;-78
2022/05/19 11:26:42;;;;;;;5.50;2.85;;;32.60;69.70;;;;;;5150514;27;20211;-79
2022/05/19 11:29:26;;;;;;;8.68;3.10;;;32.90;67.40;;;;;;5150408;27;20229;-78
2022/05/19 11:32:03;;;;;;;5.93;2.80;;;32.70;67.80;;;;;;5150800;27;20280;-77
2022/05/19 11:34:40;;;;;;;6.70;3.20;;;32.20;70.90;;;;;;5150842;27;20292;-78
2022/05/19 11:37:18;;;;;;;6.70;2.95;;;32.20;69.20;;;;;;5150629;27;20367;-78
2022/05/19 11:39:57;;;;;;;7.47;2.95;;;32.20;70.70;;;;;;5150461;27;20676;-77
2022/05/19 11:42:35;;;;;;;5.80;3.10;;;32.10;71.70;;;;;;5151573;27;20216;-77
2022/05/19 11:45:07;;;;;;;7.05;3.17;;;32.00;70.80;;;;;;5141321;27;20241;-77
2022/05/19 11:56:16;;;;;;;6.22;3.25;;;31.30;74.10;;;;;;5124610;28;20216;-78
2022/05/19 11:58:45;;;;;;;8.38;3.00;;;31.50;73.10;;;;;;5116310;28;20259;-77
2022/05/19 12:01:20;;;;;;;4.13;2.80;;;31.50;73.00;;;;;;5115613;28;20555;-76
2022/05/19 12:04:02;;;;;;;8.38;3.40;;;31.20;72.80;;;;;;5116371;28;20201;-80
2022/05/19 12:06:44;;;;;;;8.23;3.10;;;31.20;76.10;;;;;;5115530;28;20283;-78
2022/05/19 12:09:24;;;;;;;5.88;3.20;;;31.10;73.80;;;;;;5115496;28;20642;-78
2022/05/19 12:11:57;;;;;;;4.07;3.00;;;30.90;74.20;;;;;;5115479;28;20190;-79
2022/05/19 12:14:40;;;;;;;8.10;3.30;;;30.80;73.30;;;;;;5115264;28;20699;-76
2022/05/19 12:17:16;;;;;;;6.00;3.20;;;30.70;76.70;;;;;;5116076;28;20194;-76
2022/05/19 12:19:47;;;;;;;7.47;3.20;;;30.70;76.70;;;;;;5116014;28;20209;-78
2022/05/19 12:22:30;;;;;;;4.33;2.83;;;30.60;79.40;;;;;;5116044;28;20198;-78
2022/05/19 12:25:14;;;;;;;5.33;2.87;;;30.90;77.80;;;;;;5115536;28;20221;-78
2022/05/19 12:27:53;;;;;;;7.40;3.27;;;31.00;76.40;;;;;;5115176;28;20253;-77
2022/05/19 12:33:25;;;;;;;5.53;3.30;;;30.90;75.30;;;;;;5114651;28;20647;-79
2022/05/19 12:35:56;;;;;;;3.60;2.93;;;31.20;77.20;;;;;;5114562;28;20300;-78
2022/05/19 12:38:32;;;;;;;6.17;3.00;;;31.10;77.90;;;;;;5114699;28;20198;-80
2022/05/19 12:41:02;;;;;;;5.87;3.20;;;31.00;73.90;;;;;;5114898;28;20206;-77
2022/05/19 12:43:39;;;;;;;4.90;3.20;;;30.90;76.90;;;;;;5114912;28;20293;-78
2022/05/19 12:46:11;;;;;;;5.70;3.23;;;30.80;76.70;;;;;;5114530;28;20261;-77
2022/05/19 12:49:15;;;;;;;7.73;3.50;;;30.80;74.40;;;;;;5115196;28;20243;-77
2022/05/19 12:51:53;;;;;;;8.33;2.83;;;30.80;76.50;;;;;;5117800;28;20585;-77
2022/05/19 12:54:26;;;;;;;5.70;2.90;;;31.10;76.00;;;;;;5119572;28;20189;-78
2022/05/19 12:57:13;;;;;;;4.63;3.23;;;31.30;72.50;;;;;;5124360;27;20254;-77
2022/05/19 12:59:56;;;;;;;7.83;2.90;;;31.00;75.10;;;;;;5129272;28;20187;-77
2022/05/19 13:02:32;;;;;;;7.67;3.07;;;30.80;77.60;;;;;;5128723;28;20210;-78
2022/05/19 13:05:06;;;;;;;6.03;2.90;;;30.80;78.50;;;;;;5129503;28;20206;-77
2022/05/19 13:07:38;;;;;;;6.00;2.90;;;30.90;75.70;;;;;;5123388;28;20216;-76
2022/05/19 13:10:18;;;;;;;5.33;2.90;;;30.70;73.50;;;;;;5124876;28;20194;-75
2022/05/19 13:12:52;;;;;;;4.67;3.00;;;30.20;75.40;;;;;;5121081;28;20205;-76
2022/05/19 13:15:26;;;;;;;7.50;2.90;;;30.60;77.10;;;;;;5120109;28;20215;-78
2022/05/19 13:17:56;;;;;;;5.27;2.80;;;30.70;77.20;;;;;;5114917;28;20190;-77
2022/05/19 13:20:29;;;;;;;4.63;2.90;;;30.90;80.20;;;;;;5113994;28;20217;-77
2022/05/19 13:23:23;;;;;;;5.83;2.73;;;30.70;77.10;;;;;;5114181;28;20218;-78
2022/05/19 13:25:56;;;;;;;7.27;3.30;;;30.70;81.30;;;;;;5113769;28;20679;-78
2022/05/19 13:31:24;;;;;;;8.10;3.10;;;30.60;78.80;;;;;;5113888;28;20706;-77
2022/05/19 13:33:56;;;;;;;7.73;2.93;;;30.50;76.30;;;;;;5113365;28;20213;-77
2022/05/19 13:36:30;;;;;;;5.07;2.90;;;30.70;77.20;;;;;;5113495;28;20615;-78
2022/05/19 13:39:07;;;;;;;6.70;2.80;;;30.90;74.00;;;;;;5113277;28;20267;-77
2022/05/19 13:41:43;;;;;;;7.80;2.87;;;30.90;79.40;;;;;;5116674;28;20198;-78
2022/05/19 13:44:12;;;;;;;6.10;2.90;;;31.00;78.40;;;;;;5112930;28;20273;-78
2022/05/19 13:46:42;;;;;;;8.03;2.93;;;31.00;74.90;;;;;;5116428;28;20313;-78
2022/05/19 13:49:11;;;;;;;7.80;3.00;;;30.60;73.90;;;;;;5114486;28;20261;-78
2022/05/19 13:51:43;;;;;;;4.30;2.60;;;30.70;78.60;;;;;;5113685;27;20217;-78
2022/05/19 13:54:14;;;;;;;4.33;2.80;;;30.70;76.80;;;;;;5110909;28;20202;-78
2022/05/19 13:56:49;;;;;;;5.13;2.60;;;30.60;72.70;;;;;;5110900;27;20201;-77
2022/05/19 13:59:21;;;;;;;3.77;2.50;;;30.70;76.30;;;;;;5125376;27;20247;-76
2022/05/19 14:01:55;;;;;;;5.03;2.40;;;30.60;73.60;;;;;;5133485;27;20232;-77
2022/05/19 14:04:24;;;;;;;4.87;2.60;;;30.60;77.30;;;;;;5133653;27;20549;-79
2022/05/19 14:06:57;;;;;;;3.97;2.43;;;30.70;73.10;;;;;;5132895;27;20244;-78
2022/05/19 14:09:45;;;;;;;6.20;2.70;;;30.50;78.10;;;;;;5133071;27;20204;-78
2022/05/19 14:12:26;;;;;;;5.53;2.60;;;30.60;74.20;;;;;;5132980;27;20250;-78
2022/05/19 14:14:57;;;;;;;7.20;2.60;;;30.70;76.40;;;;;;5133402;27;20207;-80
2022/05/19 14:17:29;;;;;;;4.47;2.50;;;30.80;76.10;;;;;;5133459;27;20241;-79
2022/05/19 14:20:01;;;;;;;6.43;2.40;;;30.60;73.40;;;;;;5132871;27;20238;-79
2022/05/19 14:22:31;;;;;;;3.57;2.50;;;30.60;74.10;;;;;;5120277;27;20205;-79
2022/05/19 14:25:05;;;;;;;4.07;2.50;;;30.60;73.00;;;;;;5112818;28;20190;-80
2022/05/19 14:27:35;;;;;;;4.73;2.50;;;30.20;74.40;;;;;;5112742;28;20309;-80
2022/05/19 14:30:07;;;;;;;4.20;2.70;;;30.30;74.40;;;;;;5112635;28;20288;-79
2022/05/19 14:32:37;;;;;;;8.60;2.47;;;30.30;74.50;;;;;;5112671;28;20195;-78
2022/05/19 14:35:17;;;;;;;5.77;2.60;;;30.60;74.60;;;;;;5112745;28;20202;-80
2022/05/19 14:37:49;;;;;;;7.00;2.67;;;30.60;75.10;;;;;;5113123;28;20726;-80
2022/05/19 14:43:11;;;;;;;5.00;2.40;;;30.50;74.10;;;;;;5112478;28;20224;-78
2022/05/19 14:45:42;;;;;;;4.30;2.50;;;30.50;73.50;;;;;;5106723;28;20312;-77
2022/05/19 14:48:18;;;;;;;6.37;2.57;;;30.30;73.80;;;;;;5100469;28;20767;-79
2022/05/19 14:50:46;;;;;;;3.60;2.70;;;30.10;74.30;;;;;;5098440;28;20202;-76
2022/05/19 14:53:17;;;;;;;5.70;2.70;;;30.20;75.30;;;;;;5111857;28;20610;-78
2022/05/19 14:55:55;;;;;;;2.73;2.40;;;30.10;73.00;;;;;;5091309;28;20271;-76
2022/05/19 14:58:31;;;;;;;6.60;2.63;;;30.20;74.50;;;;;;5095840;28;20293;-76
2022/05/19 15:01:00;;;;;;;6.40;2.70;;;30.20;75.50;;;;;;5103832;28;20277;-78
2022/05/19 15:03:28;;;;;;;5.07;2.57;;;29.90;73.00;;;;;;5116946;28;20574;-78
2022/05/19 15:05:56;;;;;;;5.73;2.90;;;29.90;75.10;;;;;;5111212;28;20292;-78
2022/05/19 15:08:27;;;;;;;7.10;2.80;;;29.60;74.70;;;;;;5099097;28;20695;-77
2022/05/19 15:10:55;;;;;;;5.00;2.87;;;29.40;75.40;;;;;;5102358;28;20227;-79
2022/05/19 15:13:25;;;;;;;4.83;2.90;;;29.40;76.50;;;;;;5111999;28;20259;-77
2022/05/19 15:15:53;;;;;;;4.80;2.60;;;29.70;77.60;;;;;;5111823;28;20231;-77
2022/05/19 15:18:21;;;;;;;6.07;2.70;;;29.70;77.90;;;;;;5102021;28;20206;-78
2022/05/19 15:20:51;;;;;;;6.10;2.93;;;29.70;78.80;;;;;;5091499;28;20306;-78
2022/05/19 15:23:19;;;;;;;5.00;2.97;;;29.60;78.20;;;;;;5091969;28;20241;-77
2022/05/19 15:25:47;;;;;;;3.90;2.83;;;29.50;78.70;;;;;;5109565;28;20256;-77
2022/05/19 15:28:18;;;;;;;5.80;3.00;;;29.20;76.40;;;;;;5091747;28;20218;-77
2022/05/19 15:30:48;;;;;;;5.70;2.60;;;29.20;78.60;;;;;;5091715;28;20763;-76
2022/05/19 15:33:18;;;;;;;4.23;2.87;;;29.20;79.00;;;;;;5095730;28;20260;-77
2022/05/19 15:35:46;;;;;;;6.20;3.00;;;29.20;79.30;;;;;;5128562;27;20651;-76
2022/05/19 15:38:14;;;;;;;4.83;2.70;;;29.20;78.90;;;;;;5116516;27;20610;-75
2022/05/19 15:40:42;;;;;;;6.60;2.73;;;29.10;81.50;;;;;;5111507;28;20240;-78
2022/05/19 15:43:11;;;;;;;5.57;2.90;;;29.00;75.30;;;;;;5113215;28;20213;-77
2022/05/19 15:45:40;;;;;;;3.90;2.87;;;29.00;76.00;;;;;;5103501;28;20266;-75
2022/05/19 15:48:10;;;;;;;7.93;3.00;;;29.00;80.50;;;;;;5094887;28;20774;-78
2022/05/19 15:50:42;;;;;;;4.70;3.10;;;28.70;80.60;;;;;;5093482;28;20615;-76
2022/05/19 15:53:12;;;;;;;6.77;2.83;;;28.60;82.50;;;;;;5104829;28;20202;-78
2022/05/19 15:55:47;;;;;;;4.83;3.00;;;28.60;80.80;;;;;;5109048;27;20227;-78
2022/05/19 15:58:16;;;;;;;7.20;2.90;;;28.70;80.80;;;;;;5110515;27;20201;-77
2022/05/19 16:00:45;;;;;;;5.13;2.97;;;28.60;79.60;;;;;;5100863;28;20203;-76
2022/05/19 16:03:19;;;;;;;5.17;2.90;;;28.60;77.80;;;;;;5126405;27;20301;-76
2022/05/19 16:05:48;;;;;;;5.17;2.90;;;28.70;80.00;;;;;;5115139;27;20236;-78
2022/05/19 16:08:17;;;;;;;5.93;2.90;;;28.80;80.20;;;;;;5102653;28;20664;-76
2022/05/19 16:10:47;;;;;;;5.67;2.90;;;28.80;80.40;;;;;;5100507;27;20207;-79
2022/05/19 16:13:16;;;;;;;7.47;3.00;;;28.80;77.60;;;;;;5106805;27;20240;-77
2022/05/19 16:15:49;;;;;;;4.87;2.97;;;28.90;80.30;;;;;;5100615;27;20309;-78
2022/05/19 16:18:21;;;;;;;6.17;3.07;;;28.90;78.10;;;;;;5094780;28;20637;-76
2022/05/19 16:20:50;;;;;;;6.47;3.10;;;28.90;76.20;;;;;;5095509;28;20209;-78
2022/05/19 16:23:18;;;;;;;5.63;2.90;;;28.80;77.60;;;;;;5102595;28;20226;-76
2022/05/19 16:25:48;;;;;;;7.53;3.40;;;28.70;77.10;;;;;;5097997;28;20203;-76
2022/05/19 16:28:17;;;;;;;4.73;2.90;;;28.60;79.60;;;;;;5105164;28;20688;-76
2022/05/19 16:30:47;;;;;;;5.60;3.30;;;28.60;78.60;;;;;;5096042;28;20207;-78
2022/05/19 16:33:15;;;;;;;5.37;3.00;;;28.60;84.00;;;;;;5096094;28;20676;-77
2022/05/19 16:35:45;;;;;;;5.03;3.13;;;28.50;81.90;;;;;;5096767;28;20230;-76
2022/05/19 16:38:16;;;;;;;6.30;2.83;;;28.50;81.20;;;;;;5112822;28;20202;-77
2022/05/19 16:40:44;;;;;;;7.90;3.00;;;28.40;79.40;;;;;;5114166;28;20202;-79
2022/05/19 16:43:13;;;;;;;4.30;2.97;;;28.30;81.70;;;;;;5113305;28;20244;-76
2022/05/19 16:45:42;;;;;;;5.70;3.00;;;28.20;84.00;;;;;;5113527;28;20237;-76
2022/05/19 16:48:10;;;;;;;5.43;2.93;;;28.00;84.90;;;;;;5114117;28;20303;-79
2022/05/19 16:50:40;;;;;;;7.00;3.57;;;27.90;84.00;;;;;;5108498;28;20242;-78
2022/05/19 16:53:10;;;;;;;5.77;2.93;;;27.80;82.90;;;;;;5105403;28;20198;-79
2022/05/19 16:58:27;;;;;;;6.40;3.17;;;27.60;81.50;;;;;;5113773;28;20198;-76
2022/05/19 17:01:01;;;;;;;3.33;2.57;;;27.60;83.20;;;;;;5113732;28;20217;-79
2022/05/19 17:03:30;;;;;;;5.97;3.00;;;27.50;82.80;;;;;;5107487;28;20202;-78
2022/05/19 17:06:00;;;;;;;5.53;2.90;;;27.50;82.30;;;;;;5111831;28;20687;-76
2022/05/19 17:08:30;;;;;;;5.30;3.00;;;27.40;81.70;;;;;;5113478;28;20243;-77
2022/05/19 17:10:59;;;;;;;5.93;3.53;;;27.30;81.40;;;;;;5113332;28;20255;-78
2022/05/19 17:13:29;;;;;;;7.23;3.70;;;27.20;83.00;;;;;;5112549;28;20644;-76
2022/05/19 17:15:58;;;;;;;11.03;3.30;;;27.10;84.40;;;;;;5108115;28;20660;-76
2022/05/19 17:18:26;;;;;;;7.63;3.90;;;27.10;84.90;;;;;;5101555;28;20226;-76
2022/05/19 17:20:55;;;;;;;5.00;2.93;;;27.00;85.00;;;;;;5111350;28;20213;-76
2022/05/19 17:23:23;;;;;;;4.57;3.00;;;26.90;85.20;;;;;;5106612;28;20208;-77
2022/05/19 17:25:52;;;;;;;7.87;3.20;;;26.90;85.40;;;;;;5113262;28;20289;-78
2022/05/19 17:28:21;;;;;;;6.50;3.10;;;26.80;86.90;;;;;;5113105;28;20264;-78
2022/05/19 17:30:49;;;;;;;6.60;2.93;;;26.70;86.90;;;;;;5111807;28;20450;-78
2022/05/19 17:33:18;;;;;;;6.67;3.70;;;26.70;86.40;;;;;;5111213;28;20206;-78
2022/05/19 17:35:48;;;;;;;6.80;3.17;;;26.70;87.70;;;;;;5113105;28;20218;-76
2022/05/19 17:38:16;;;;;;;5.47;3.07;;;26.60;88.70;;;;;;5113145;28;20202;-76
2022/05/19 17:40:45;;;;;;;6.03;3.20;;;26.50;89.60;;;;;;5103608;28;20238;-77
2022/05/19 17:43:16;;;;;;;8.73;3.30;;;26.40;90.00;;;;;;5107052;28;20297;-77
2022/05/19 17:45:46;;;;;;;6.50;3.10;;;26.30;90.50;;;;;;5112442;28;20257;-77
2022/05/19 17:48:15;;;;;;;6.30;3.37;;;26.20;90.30;;;;;;5112686;28;20265;-77